Airport View

Enter AWOS ICAO identifier for current METAR.

ex. KFNL

KLBE 080835Z AUTO 18006KT 10SM -DZ SCT090 12/12 A2964 RMK AO2

8 Apr 2020 08:45

Phone: 724-537-0671

Other Area AWOS: K2G9 - KAGC - KIDI - KJST

TAF AMD KLBE 080724Z 0807/0906 34011KT P6SM -RA SCT050 OVC080 FM081200 26012KT P6SM OVC025 FM081900 30012KT P6SM BKN035